Time;durP1;ratioP1;P1;durP2;ratioP2;P2;SDS_P1;SDS_P2;PMS_P1;PMS_P2;Temp;Humidity;BMP_temperature;BMP_pressure;BME280_temperature;BME280_humidity;BME280_pressure;Samples;Min_cycle;Max_cycle;Signal;HPM_P1;HPM_P2
2022/03/25 00:01:12;;;;;;;58.65;37.50;;;13.50;99.90;;;13.96;50.53;102882.34;5074699;28;20078;-60
2022/03/25 00:03:41;;;;;;;63.17;38.88;;;13.50;99.90;;;13.91;49.50;102876.97;5074067;28;20048;-60
2022/03/25 00:06:10;;;;;;;64.50;37.97;;;13.50;99.90;;;13.94;48.32;102877.00;5106822;27;20093;-60
2022/03/25 00:08:39;;;;;;;61.40;37.72;;;13.50;99.90;;;13.98;48.05;102884.16;5074248;28;20544;-60
2022/03/25 00:11:07;;;;;;;59.38;37.40;;;13.50;99.90;;;14.08;47.56;102882.53;5073939;28;20071;-60
2022/03/25 00:13:35;;;;;;;59.65;37.92;;;13.60;99.90;;;14.11;47.10;102885.25;5074200;28;20079;-60
2022/03/25 00:16:07;;;;;;;65.00;38.60;;;13.60;99.90;;;14.21;46.76;102888.03;5073814;28;20045;-60
2022/03/25 00:18:36;;;;;;;62.13;37.95;;;13.70;99.90;;;14.22;46.13;102875.63;5074177;28;20045;-60
2022/03/25 00:21:05;;;;;;;63.03;38.33;;;13.80;99.90;;;14.18;46.23;102887.09;5072669;28;20079;-60
2022/03/25 00:23:33;;;;;;;62.65;39.45;;;13.70;99.90;;;14.14;46.01;102888.84;5073773;28;20041;-60
2022/03/25 00:26:03;;;;;;;61.33;38.38;;;13.70;99.90;;;14.18;46.21;102884.44;5074016;28;20048;-60
2022/03/25 00:28:32;;;;;;;61.28;38.60;;;13.70;99.90;;;14.22;46.29;102891.59;5073887;28;20052;-60
2022/03/25 00:31:01;;;;;;;65.07;40.80;;;13.70;99.90;;;14.17;46.25;102882.63;5073859;28;20080;-60
2022/03/25 00:33:31;;;;;;;64.63;39.77;;;13.70;99.90;;;14.18;46.13;102887.09;5073924;28;20059;-60
2022/03/25 00:36:01;;;;;;;59.60;39.10;;;13.70;99.90;;;14.22;46.24;102884.50;5073789;28;20321;-60
2022/03/25 00:38:31;;;;;;;50.92;34.25;;;13.70;99.90;;;14.07;49.09;102883.41;5072475;28;20048;-60
2022/03/25 00:40:59;;;;;;;53.58;36.10;;;13.60;99.90;;;13.86;49.96;102889.31;5073510;28;20045;-60
2022/03/25 00:43:29;;;;;;;53.28;35.42;;;13.40;99.90;;;13.78;49.68;102884.75;5073425;28;20127;-60
2022/03/25 00:45:57;;;;;;;52.15;35.60;;;13.30;99.90;;;13.70;51.15;102886.41;5073377;28;20049;-60
2022/03/25 00:48:27;;;;;;;58.03;35.08;;;13.20;99.90;;;13.61;51.46;102884.50;5072234;28;20113;-60
2022/03/25 00:50:58;;;;;;;51.28;34.35;;;13.10;99.90;;;13.54;51.78;102879.97;5089172;28;20048;-60
2022/03/25 00:53:27;;;;;;;54.25;35.08;;;13.00;99.90;;;13.41;50.28;102889.50;5072221;28;20078;-60
2022/03/25 00:55:56;;;;;;;54.00;34.47;;;12.90;99.90;;;13.27;49.11;102888.38;5072171;28;20123;-61
2022/03/25 00:58:24;;;;;;;56.63;35.15;;;12.80;99.90;;;13.18;48.97;102885.56;5073512;28;20052;-61
2022/03/25 01:00:53;;;;;;;58.20;37.83;;;12.70;99.90;;;13.19;49.21;102879.38;5072156;28;20044;-60
2022/03/25 01:03:21;;;;;;;58.85;36.20;;;12.70;99.90;;;13.14;48.88;102883.72;5073141;28;20237;-60
2022/03/25 01:05:50;;;;;;;60.20;35.80;;;12.70;99.90;;;13.08;49.10;102880.97;5073068;28;20055;-61
2022/03/25 01:08:20;;;;;;;57.20;35.53;;;12.60;99.90;;;13.04;49.55;102881.78;5073333;28;20074;-60
2022/03/25 01:10:49;;;;;;;55.22;34.65;;;12.50;99.90;;;12.98;50.24;102886.94;5073138;28;20100;-60
2022/03/25 01:13:18;;;;;;;57.65;36.00;;;12.50;99.90;;;12.89;50.78;102878.78;5071909;28;20056;-60
2022/03/25 01:15:46;;;;;;;55.38;35.83;;;12.40;99.90;;;12.83;51.97;102884.03;5073267;28;20044;-60
2022/03/25 01:18:14;;;;;;;60.08;38.40;;;12.30;99.90;;;12.79;52.99;102879.50;5073287;28;20189;-60
2022/03/25 01:20:43;;;;;;;66.15;39.92;;;12.30;99.90;;;12.68;54.06;102881.94;5073224;28;20101;-60
2022/03/25 01:23:12;;;;;;;67.18;41.13;;;12.20;99.90;;;12.63;55.40;102880.97;5071907;28;20466;-60
2022/03/25 01:25:42;;;;;;;64.88;41.17;;;12.10;99.90;;;12.55;55.85;102879.94;5073008;28;20048;-62
2022/03/25 01:28:11;;;;;;;68.87;41.43;;;12.10;99.90;;;12.49;56.44;102871.84;5071944;28;20049;-61
2022/03/25 01:30:39;;;;;;;63.03;40.08;;;12.00;99.90;;;12.45;57.12;102872.66;5073157;28;20071;-60
2022/03/25 01:33:07;;;;;;;60.17;39.78;;;11.90;99.90;;;12.44;57.65;102870.88;5071697;28;20044;-61
2022/03/25 01:35:36;;;;;;;65.15;41.40;;;11.90;99.90;;;12.41;58.02;102875.19;5072583;28;20063;-61
2022/03/25 01:38:06;;;;;;;60.53;37.97;;;11.90;99.90;;;12.32;59.98;102865.31;5072513;28;20053;-61
2022/03/25 01:40:35;;;;;;;55.75;37.10;;;11.80;99.90;;;12.32;61.00;102869.72;5071146;28;20049;-64
2022/03/25 01:43:07;;;;;;;57.05;35.67;;;11.80;99.90;;;12.19;61.46;102868.56;5072504;28;20068;-60
2022/03/25 01:45:38;;;;;;;47.28;32.55;;;11.70;99.90;;;12.24;61.49;102869.56;5072889;28;20436;-61
2022/03/25 01:48:10;;;;;;;53.53;32.90;;;11.70;99.90;;;12.18;62.35;102868.50;5071509;28;20440;-61
2022/03/25 01:50:40;;;;;;;48.15;31.30;;;11.70;99.90;;;12.17;62.55;102869.41;5072777;28;20090;-61
2022/03/25 01:53:12;;;;;;;48.60;34.25;;;11.70;99.90;;;12.19;62.43;102872.97;5072508;28;20113;-60
2022/03/25 01:55:50;;;;;;;50.05;33.10;;;11.70;99.90;;;12.15;62.14;102877.34;5105345;28;20109;-61
2022/03/25 01:58:20;;;;;;;52.92;32.25;;;11.70;99.90;;;12.11;61.29;102880.78;5105186;28;20045;-60
2022/03/25 02:00:49;;;;;;;50.70;33.92;;;11.60;99.90;;;12.06;60.70;102876.25;5072611;28;20123;-61
2022/03/25 02:03:18;;;;;;;55.28;34.92;;;11.60;99.90;;;11.99;60.25;102871.66;5072411;28;20052;-60
2022/03/25 02:05:48;;;;;;;58.08;34.47;;;11.50;99.90;;;11.99;60.54;102875.19;5072320;28;20051;-60
2022/03/25 02:08:17;;;;;;;59.67;34.42;;;11.50;99.90;;;12.01;61.43;102873.47;5071025;28;20056;-60
2022/03/25 02:10:46;;;;;;;57.72;36.95;;;11.50;99.90;;;12.02;61.44;102871.72;5070792;28;20048;-61
2022/03/25 02:13:14;;;;;;;62.20;39.53;;;11.50;99.90;;;12.00;61.06;102876.09;5070833;28;20040;-61
2022/03/25 02:15:49;;;;;;;65.72;39.97;;;11.50;99.90;;;11.90;60.13;102852.88;5070845;28;20075;-60
2022/03/25 02:18:19;;;;;;;57.55;36.85;;;11.50;99.90;;;12.05;60.47;102874.44;5070319;28;20097;-60
2022/03/25 02:20:50;;;;;;;56.67;38.17;;;11.50;99.90;;;12.03;59.92;102873.50;5104568;28;20044;-60
2022/03/25 02:23:23;;;;;;;51.20;33.63;;;11.50;99.90;;;12.08;60.05;102880.69;5072099;28;20048;-60
2022/03/25 02:25:54;;;;;;;70.70;44.88;;;11.60;99.90;;;12.11;59.16;102874.56;5087526;28;20051;-60
2022/03/25 02:28:24;;;;;;;73.22;48.33;;;11.70;99.90;;;12.22;58.15;102873.94;5104375;28;20052;-60
2022/03/25 02:30:56;;;;;;;84.68;52.50;;;11.70;99.90;;;12.16;57.45;102851.66;5070240;28;20472;-61
2022/03/25 02:33:25;;;;;;;87.13;55.17;;;11.80;99.90;;;12.35;56.97;102872.44;5070453;28;20055;-60
2022/03/25 02:35:54;;;;;;;87.13;57.00;;;11.90;99.90;;;12.40;56.76;102870.75;5071778;28;20056;-60
2022/03/25 02:38:26;;;;;;;88.40;56.35;;;11.90;99.90;;;12.45;56.49;102879.69;5071764;28;20049;-60
2022/03/25 02:40:55;;;;;;;91.75;59.25;;;11.90;99.90;;;12.47;56.49;102872.66;5070436;28;20052;-60
2022/03/25 02:43:29;;;;;;;91.78;58.63;;;12.00;99.90;;;12.57;56.25;102875.53;5070425;28;20143;-60
2022/03/25 02:46:04;;;;;;;94.50;59.28;;;12.10;99.90;;;12.63;56.03;102872.13;5087206;28;20049;-60
2022/03/25 02:48:32;;;;;;;95.20;59.33;;;12.20;99.90;;;12.65;56.18;102875.69;5070345;28;20079;-61
2022/03/25 02:51:01;;;;;;;99.93;62.95;;;12.20;99.90;;;12.72;56.11;102882.91;5071672;28;20079;-60
2022/03/25 02:53:31;;;;;;;94.15;61.67;;;12.30;99.90;;;12.76;56.30;102875.88;5071372;28;20044;-61
2022/03/25 02:55:59;;;;;;;92.57;59.53;;;12.30;99.90;;;12.77;56.08;102875.94;5071454;28;20051;-61
2022/03/25 02:58:28;;;;;;;92.15;60.50;;;12.40;99.90;;;12.84;55.99;102864.53;5071412;28;20063;-61
2022/03/25 03:00:56;;;;;;;96.35;60.78;;;12.50;99.90;;;12.83;55.86;102870.75;5071224;28;20045;-60
2022/03/25 03:03:25;;;;;;;94.65;61.17;;;12.50;99.90;;;12.84;56.08;102872.50;5070191;28;20060;-61
2022/03/25 03:05:53;;;;;;;97.90;62.67;;;12.50;99.90;;;12.78;56.22;102867.09;5070198;28;20418;-60
2022/03/25 03:08:22;;;;;;;94.30;62.17;;;12.40;99.90;;;12.76;56.46;102866.16;5071258;28;20070;-60
2022/03/25 03:10:52;;;;;;;101.13;62.05;;;12.40;99.90;;;12.78;56.28;102875.06;5071099;28;20082;-60
2022/03/25 03:13:21;;;;;;;95.03;60.65;;;12.40;99.90;;;12.83;56.56;102869.84;5071294;28;20048;-60
2022/03/25 03:15:50;;;;;;;98.90;63.40;;;12.50;99.90;;;12.72;56.68;102864.31;5071446;28;20098;-61
2022/03/25 03:18:20;;;;;;;98.60;64.13;;;12.40;99.90;;;12.77;56.88;102867.06;5071100;28;20044;-61
2022/03/25 03:20:48;;;;;;;101.78;63.53;;;12.40;99.90;;;12.77;56.95;102872.38;5071369;28;20393;-60
2022/03/25 03:23:17;;;;;;;97.40;64.03;;;12.40;99.90;;;12.80;56.84;102870.66;5071070;28;20123;-60
2022/03/25 03:25:46;;;;;;;96.05;62.33;;;12.40;99.90;;;12.81;56.63;102869.81;5071085;28;20382;-60
2022/03/25 03:28:15;;;;;;;98.22;62.95;;;12.40;99.90;;;12.81;56.68;102872.47;5071261;28;20079;-61
2022/03/25 03:30:44;;;;;;;101.33;63.37;;;12.50;99.90;;;12.75;56.80;102874.09;5073052;28;20045;-60
2022/03/25 03:33:12;;;;;;;98.28;64.90;;;12.40;99.90;;;12.79;56.74;102868.88;5074807;28;20099;-60
2022/03/25 03:35:41;;;;;;;103.95;65.70;;;12.40;99.90;;;12.79;56.75;102874.19;5074654;28;20135;-61
2022/03/25 03:38:09;;;;;;;105.90;68.75;;;12.40;99.90;;;12.72;57.11;102874.94;5074729;28;20480;-60
2022/03/25 03:40:38;;;;;;;110.15;69.45;;;12.40;99.90;;;12.72;57.20;102866.09;5074725;28;20094;-61
2022/03/25 03:43:07;;;;;;;114.63;68.93;;;12.30;99.90;;;12.67;57.34;102869.56;5074656;28;20088;-60
2022/03/25 03:45:37;;;;;;;111.35;69.47;;;12.30;99.90;;;12.70;57.51;102864.28;5074898;28;20052;-61
2022/03/25 03:48:06;;;;;;;110.30;71.93;;;12.30;99.90;;;12.63;57.41;102850.88;5074589;28;20048;-60
2022/03/25 03:50:33;;;;;;;113.03;71.30;;;12.30;99.90;;;12.66;57.74;102869.50;5074473;28;20040;-60
2022/03/25 03:53:02;;;;;;;107.78;70.60;;;12.30;99.90;;;12.63;57.83;102862.41;5074777;28;20102;-60
2022/03/25 03:55:31;;;;;;;112.90;72.85;;;12.30;99.90;;;12.63;58.05;102869.44;5074477;28;20037;-60
2022/03/25 03:58:00;;;;;;;118.20;74.97;;;12.20;99.90;;;12.68;58.28;102866.00;5074468;28;20044;-61
2022/03/25 04:00:28;;;;;;;110.32;73.10;;;12.30;99.90;;;12.67;58.18;102868.66;5074397;28;20063;-61
2022/03/25 04:02:58;;;;;;;114.43;75.10;;;12.30;99.90;;;12.45;58.77;102843.44;5073387;28;20438;-63
2022/03/25 04:05:27;;;;;;;115.85;74.47;;;12.20;99.90;;;12.58;58.57;102866.69;5074712;28;20190;-61
2022/03/25 04:07:55;;;;;;;114.45;74.70;;;12.20;99.90;;;12.59;58.60;102871.16;5074363;28;20052;-60
2022/03/25 04:10:23;;;;;;;116.45;74.68;;;12.20;99.90;;;12.34;58.79;102839.69;5074335;28;20046;-61
2022/03/25 04:12:52;;;;;;;111.00;72.82;;;12.10;99.90;;;12.43;58.85;102874.38;5074460;28;20371;-60
2022/03/25 04:15:20;;;;;;;111.82;72.53;;;12.00;99.90;;;12.41;58.71;102869.88;5074360;28;20575;-61
2022/03/25 04:17:49;;;;;;;114.13;73.50;;;12.00;99.90;;;12.32;59.22;102873.25;5074384;28;20393;-61
2022/03/25 04:20:18;;;;;;;111.72;71.57;;;11.90;99.90;;;12.23;59.44;102869.53;5074250;28;20064;-60
2022/03/25 04:22:47;;;;;;;119.00;76.78;;;11.80;99.90;;;12.19;59.85;102871.22;5074066;28;20474;-60
2022/03/25 04:25:16;;;;;;;114.43;73.57;;;11.80;99.90;;;12.23;59.77;102870.41;5072860;28;20366;-61
2022/03/25 04:27:52;;;;;;;110.55;72.45;;;11.80;99.90;;;12.24;59.65;102876.59;5073974;28;20060;-61
2022/03/25 04:30:23;;;;;;;114.88;74.93;;;11.80;99.90;;;12.21;60.08;102884.53;5073908;28;20044;-61
2022/03/25 04:32:52;;;;;;;118.18;76.95;;;11.80;99.90;;;12.20;59.96;102882.72;5074198;28;20542;-60
2022/03/25 04:35:23;;;;;;;113.13;74.97;;;11.80;99.90;;;12.21;60.09;102882.78;5073678;28;20044;-60
2022/03/25 04:37:53;;;;;;;120.53;76.32;;;11.80;99.90;;;12.20;60.05;102877.41;5074018;28;20502;-61
2022/03/25 04:40:23;;;;;;;118.72;76.38;;;11.80;99.90;;;12.22;60.10;102878.34;5073736;28;20049;-61
2022/03/25 04:42:53;;;;;;;;;;;11.80;99.90;;;12.23;59.88;102885.44;5074782;28;20503;-61
2022/03/25 04:45:24;;;;;;;119.57;77.47;;;11.80;99.90;;;12.26;60.23;102886.41;5073665;28;20023;-60
2022/03/25 04:47:53;;;;;;;118.10;78.30;;;11.80;99.90;;;11.48;60.26;102766.19;5074185;28;20052;-60
2022/03/25 04:50:24;;;;;;;125.70;80.30;;;11.80;99.90;;;12.21;60.67;102877.47;5073429;28;20131;-60
2022/03/25 04:52:52;;;;;;;117.72;77.47;;;11.80;99.90;;;12.19;60.53;102888.91;5073545;28;20045;-60
2022/03/25 04:55:22;;;;;;;129.80;82.90;;;11.80;99.90;;;12.19;60.72;102891.56;5073349;28;20123;-61
2022/03/25 04:57:50;;;;;;;120.55;81.00;;;11.80;99.90;;;12.16;60.87;102886.16;5073355;28;20101;-60
2022/03/25 05:00:18;;;;;;;123.55;80.78;;;11.80;99.90;;;11.91;61.07;102860.88;5073329;28;20124;-60
2022/03/25 05:02:47;;;;;;;122.35;80.18;;;11.80;99.90;;;12.06;61.08;102884.19;5073271;28;20040;-60
2022/03/25 05:05:16;;;;;;;125.70;81.03;;;11.70;99.90;;;12.06;61.18;102893.03;5073124;28;20044;-60
2022/03/25 05:07:50;;;;;;;128.32;82.28;;;11.70;99.90;;;12.04;61.36;102889.44;5073114;28;20559;-60
2022/03/25 05:10:18;;;;;;;122.32;79.85;;;11.70;99.90;;;12.01;61.35;102893.78;5072974;28;20090;-60
2022/03/25 05:12:47;;;;;;;120.82;80.15;;;11.60;99.90;;;11.98;61.47;102888.44;5072948;28;20041;-60
2022/03/25 05:15:15;;;;;;;122.82;80.75;;;11.50;99.90;;;11.84;61.76;102896.09;5073225;28;20540;-60
2022/03/25 05:17:46;;;;;;;126.53;80.15;;;11.50;99.90;;;11.78;62.13;102894.19;5073062;28;20037;-60
2022/03/25 05:20:17;;;;;;;120.28;78.45;;;11.40;99.90;;;11.76;62.12;102895.91;5073222;28;20051;-60
2022/03/25 05:22:47;;;;;;;113.97;73.72;;;11.30;99.90;;;11.73;62.12;102900.22;5072761;28;20486;-60
2022/03/25 05:25:17;;;;;;;110.43;73.18;;;11.30;99.90;;;11.56;62.14;102894.50;5072740;28;20102;-60
2022/03/25 05:27:50;;;;;;;113.03;73.88;;;11.20;99.90;;;11.46;62.16;102897.78;5072604;28;20067;-60
2022/03/25 05:30:22;;;;;;;113.60;71.32;;;11.10;99.90;;;11.34;62.24;102897.47;5072579;28;20593;-60
2022/03/25 05:32:51;;;;;;;110.78;71.47;;;10.90;99.90;;;11.25;62.64;102897.25;5072498;28;20074;-60
2022/03/25 05:35:20;;;;;;;106.45;67.00;;;10.80;99.90;;;11.19;63.29;102896.22;5072425;28;20044;-60
2022/03/25 05:37:51;;;;;;;101.32;65.82;;;10.70;99.90;;;11.12;63.64;102892.50;5072197;28;20521;-61
2022/03/25 05:40:21;;;;;;;95.18;63.85;;;10.70;99.90;;;11.01;64.64;102906.31;5072365;28;20446;-60
2022/03/25 05:42:51;;;;;;;80.28;52.60;;;10.60;99.90;;;10.89;65.21;102906.88;5072329;28;20059;-60
2022/03/25 05:45:21;;;;;;;77.38;51.20;;;10.40;99.90;;;10.84;65.21;102903.19;5072691;28;20530;-60
2022/03/25 05:47:50;;;;;;;79.32;53.03;;;10.40;99.90;;;10.74;65.30;102899.41;5072268;28;20083;-61
2022/03/25 05:50:19;;;;;;;63.55;43.05;;;10.30;99.90;;;10.71;65.86;102907.28;5072161;28;20052;-60
2022/03/25 05:52:50;;;;;;;37.42;27.63;;;10.30;99.90;;;10.66;66.85;102902.72;5071249;28;20117;-60
2022/03/25 05:55:19;;;;;;;32.78;24.25;;;10.20;99.90;;;10.55;67.25;102909.47;5072461;28;20109;-60
2022/03/25 05:57:48;;;;;;;25.17;19.27;;;10.10;99.90;;;10.28;67.48;102880.44;5072357;28;20501;-60
2022/03/25 06:00:17;;;;;;;25.30;18.67;;;10.00;99.90;;;10.21;67.60;102897.00;5071995;28;20048;-60
2022/03/25 06:02:46;;;;;;;25.40;18.73;;;9.80;99.90;;;10.18;67.12;102898.66;5070880;28;20044;-60
2022/03/25 06:05:15;;;;;;;48.92;33.40;;;9.70;99.90;;;10.11;67.08;102901.97;5072167;28;20060;-60
2022/03/25 06:07:45;;;;;;;72.63;49.40;;;9.70;99.90;;;9.90;67.24;102904.81;5071854;28;20048;-60
2022/03/25 06:10:16;;;;;;;65.38;42.78;;;9.50;99.90;;;9.95;67.64;102906.75;5072181;28;20044;-60
2022/03/25 06:12:44;;;;;;;37.65;27.08;;;9.50;99.90;;;10.01;67.78;102904.28;5072118;28;20101;-60
2022/03/25 06:15:13;;;;;;;53.85;37.30;;;9.50;99.90;;;10.09;68.09;102906.25;5070590;28;20131;-60
2022/03/25 06:17:43;;;;;;;57.63;38.95;;;9.60;99.90;;;10.21;68.29;102904.94;5071673;28;20070;-60
2022/03/25 06:20:13;;;;;;;68.40;45.00;;;9.70;99.90;;;10.43;68.34;102911.75;5071925;28;20105;-60
2022/03/25 06:22:43;;;;;;;66.43;45.10;;;10.00;99.90;;;10.57;67.46;102916.56;5071524;28;20453;-60
2022/03/25 06:25:13;;;;;;;52.58;35.65;;;10.10;99.90;;;10.73;67.03;102923.19;5071694;28;20301;-60
2022/03/25 06:27:50;;;;;;;;;;;10.20;99.90;;;10.69;66.52;102886.91;5072639;28;20052;-61
2022/03/25 06:30:21;;;;;;;70.07;47.00;;;10.40;99.90;;;10.95;66.54;102927.34;5087342;28;20263;-60
2022/03/25 06:32:49;;;;;;;;;;;10.50;99.90;;;11.24;66.19;102932.56;5071901;28;20033;-60
2022/03/25 06:35:18;;;;;;;51.67;34.70;;;10.70;99.90;;;11.45;66.44;102927.81;5071781;28;20015;-60
2022/03/25 06:37:47;;;;;;;57.90;38.83;;;11.00;99.90;;;11.69;66.75;102943.44;5071432;28;20057;-60
2022/03/25 06:40:16;;;;;;;52.80;36.30;;;11.20;99.90;;;11.81;66.40;102942.84;5071427;28;20121;-61
2022/03/25 06:42:44;;;;;;;50.92;35.38;;;11.30;99.90;;;12.11;66.07;102943.53;5070433;28;20114;-60
2022/03/25 06:45:18;;;;;;;60.17;41.15;;;11.60;99.90;;;12.45;65.35;102938.09;5072120;28;20464;-62
2022/03/25 06:47:47;;;;;;;49.67;35.97;;;11.90;99.90;;;12.52;65.22;102946.22;5071950;28;20093;-60
2022/03/25 06:50:18;;;;;;;66.63;45.17;;;12.10;99.90;;;12.89;64.53;102953.16;5071519;28;20072;-60
2022/03/25 06:52:48;;;;;;;95.10;63.45;;;12.40;99.90;;;13.30;63.24;102951.31;5071736;28;20052;-61
2022/03/25 06:55:18;;;;;;;117.97;79.40;;;12.80;99.90;;;13.69;62.13;102962.63;5071507;28;20040;-61
2022/03/25 06:57:50;;;;;;;129.57;85.32;;;13.20;99.90;;;13.90;61.10;102962.09;5071781;28;20085;-61
2022/03/25 07:00:22;;;;;;;120.93;84.55;;;13.40;99.90;;;14.33;59.63;102956.56;5087280;28;20517;-61
2022/03/25 07:02:52;;;;;;;125.03;84.53;;;13.80;99.90;;;14.53;59.15;102948.81;5071681;28;20054;-61
2022/03/25 07:05:24;;;;;;;126.57;87.25;;;14.10;99.90;;;14.81;58.34;102966.94;5074875;28;20477;-61
2022/03/25 07:07:53;;;;;;;125.65;83.32;;;14.30;99.90;;;14.98;57.49;102966.25;5076024;28;20079;-61
2022/03/25 07:10:23;;;;;;;123.22;84.82;;;14.60;99.90;;;15.23;57.02;102968.28;5075986;28;20036;-60
2022/03/25 07:12:54;;;;;;;123.10;87.75;;;14.80;99.90;;;15.24;56.59;102948.75;5091526;28;20048;-61
2022/03/25 07:15:25;;;;;;;127.05;86.53;;;15.00;99.90;;;15.60;55.79;102974.91;5075387;28;20052;-61
2022/03/25 07:17:53;;;;;;;124.72;84.95;;;15.20;99.90;;;15.72;55.17;102980.34;5075559;28;20066;-61
2022/03/25 07:20:25;;;;;;;122.07;85.45;;;15.30;99.90;;;15.88;54.62;102990.28;5075189;28;20495;-61
2022/03/25 07:22:54;;;;;;;122.95;88.50;;;15.40;99.90;;;15.65;54.48;102950.94;5075078;28;20498;-61
2022/03/25 07:25:25;;;;;;;124.88;85.97;;;15.50;99.90;;;16.03;54.19;102992.16;5075130;28;20486;-61
2022/03/25 07:27:53;;;;;;;119.88;86.28;;;15.60;99.90;;;16.13;53.68;102999.34;5075347;28;20045;-61
2022/03/25 07:30:23;;;;;;;117.68;85.03;;;15.70;99.90;;;15.95;52.94;102988.56;5075188;28;20048;-61
2022/03/25 07:32:52;;;;;;;116.38;82.43;;;15.70;99.90;;;16.12;53.45;102997.56;5075156;28;20053;-62
2022/03/25 07:35:21;;;;;;;119.10;87.40;;;15.70;99.90;;;16.21;52.82;102990.50;5073817;28;20127;-61
2022/03/25 07:37:49;;;;;;;111.57;81.07;;;15.80;99.90;;;16.41;52.33;102998.66;5075037;28;20044;-61
2022/03/25 07:40:18;;;;;;;115.43;81.47;;;16.00;99.90;;;16.50;51.83;103003.16;5073912;28;20139;-61
2022/03/25 07:42:47;;;;;;;118.03;84.45;;;16.10;99.90;;;16.69;51.57;102995.25;5074951;28;20068;-61
2022/03/25 07:45:16;;;;;;;115.90;81.65;;;16.30;99.90;;;16.86;50.96;102995.34;5075194;28;20439;-61
2022/03/25 07:47:48;;;;;;;109.78;79.43;;;16.60;99.90;;;16.97;49.72;103002.53;5074907;28;20059;-61
2022/03/25 07:50:19;;;;;;;109.80;81.22;;;16.70;99.90;;;17.11;49.76;103011.44;5073705;28;20127;-60
2022/03/25 07:52:49;;;;;;;104.03;77.55;;;16.80;99.90;;;17.33;49.19;103008.84;5107311;28;20048;-61
2022/03/25 07:55:25;;;;;;;105.53;77.82;;;16.90;99.90;;;17.56;48.47;103015.16;5078080;28;20422;-61
2022/03/25 07:57:59;;;;;;;105.57;75.88;;;17.20;99.90;;;17.66;47.67;103015.16;5090449;28;20044;-61
2022/03/25 08:00:27;;;;;;;107.30;78.72;;;17.40;99.90;;;17.61;47.27;103006.25;5074667;28;20042;-62
2022/03/25 08:02:57;;;;;;;106.50;78.10;;;17.40;99.90;;;17.78;47.51;103030.34;5074449;28;20052;-62
2022/03/25 08:05:26;;;;;;;104.18;75.55;;;17.50;99.90;;;17.92;46.68;103031.25;5074403;28;20048;-62
2022/03/25 08:07:56;;;;;;;103.43;77.60;;;17.60;99.90;;;18.13;46.17;103033.03;5074444;28;20068;-62
2022/03/25 08:10:26;;;;;;;101.32;74.43;;;17.80;99.90;;;18.29;46.14;103034.78;5074052;28;20052;-63
2022/03/25 08:12:56;;;;;;;101.95;74.93;;;17.90;99.90;;;18.48;45.70;103032.13;5073963;28;20036;-62
2022/03/25 08:15:27;;;;;;;100.45;74.97;;;18.10;99.90;;;18.57;45.14;103032.09;5073118;28;20048;-63
2022/03/25 08:18:00;;;;;;;107.65;75.22;;;18.30;99.90;;;18.66;44.45;103040.09;5074079;28;20044;-62
2022/03/25 08:20:33;;;;;;;96.18;73.05;;;18.40;99.90;;;18.73;44.33;103017.75;5073781;28;20056;-58
2022/03/25 08:23:02;;;;;;;95.38;70.55;;;18.50;99.90;;;19.03;44.62;103048.03;5073766;28;20094;-58
2022/03/25 08:28:19;;;;;;;96.85;73.10;;;18.70;99.90;;;19.22;43.24;103057.75;5073935;28;20489;-57
2022/03/25 08:30:48;;;;;;;96.70;71.78;;;18.90;99.90;;;19.29;42.81;103063.09;5074031;28;20052;-57
2022/03/25 08:33:18;;;;;;;91.60;71.10;;;19.00;99.90;;;19.43;42.63;103071.09;5073496;28;20110;-57
2022/03/25 08:35:48;;;;;;;97.25;71.78;;;19.10;99.90;;;19.54;42.42;103066.56;5073579;28;20106;-58
2022/03/25 08:38:17;;;;;;;91.00;69.85;;;19.20;99.90;;;19.45;42.78;103062.13;5073317;28;20060;-58
2022/03/25 08:40:46;;;;;;;92.35;69.72;;;19.20;99.90;;;19.63;42.32;103061.13;5073408;28;20049;-57
2022/03/25 08:43:34;;;;;;;96.28;69.65;;;19.30;99.90;;;19.78;42.09;103066.41;5073708;28;20163;-58
2022/03/25 08:46:04;;;;;;;92.03;70.40;;;19.40;99.90;;;19.57;42.02;103045.03;5073267;28;20088;-57
2022/03/25 08:48:34;;;;;;;91.77;69.23;;;19.40;99.90;;;19.73;41.83;103070.91;5073238;28;20490;-58
2022/03/25 08:51:02;;;;;;;87.55;67.60;;;19.40;99.90;;;19.82;41.57;103069.94;5073266;28;20045;-58
2022/03/25 08:53:31;;;;;;;87.47;65.25;;;19.50;99.90;;;19.93;40.83;103068.97;5073117;28;20123;-58
2022/03/25 08:56:01;;;;;;;84.18;63.13;;;19.60;99.90;;;20.04;40.71;103067.06;5073251;28;20127;-58
2022/03/25 08:58:30;;;;;;;85.25;63.67;;;19.70;99.90;;;20.18;40.44;103066.97;5073712;28;20074;-58
2022/03/25 09:00:59;;;;;;;84.88;60.80;;;19.80;99.90;;;20.29;39.85;103068.69;5073019;28;20158;-58
2022/03/25 09:03:27;;;;;;;75.60;58.13;;;20.00;99.90;;;20.22;39.91;103072.34;5073191;28;20068;-58
2022/03/25 09:05:57;;;;;;;80.53;60.10;;;19.90;99.90;;;20.19;39.86;103071.47;5073114;28;20044;-57
2022/03/25 09:08:26;;;;;;;80.33;59.83;;;19.90;99.90;;;20.23;39.84;103076.78;5073054;28;20383;-57
2022/03/25 09:10:55;;;;;;;84.32;60.80;;;19.90;99.90;;;20.36;39.71;103077.59;5073016;28;20407;-57
2022/03/25 09:13:24;;;;;;;83.45;60.20;;;20.00;99.90;;;20.28;38.95;103079.44;5072810;28;20066;-57
2022/03/25 09:15:52;;;;;;;75.85;55.78;;;20.00;99.90;;;20.42;39.30;103083.78;5073340;28;20139;-57
2022/03/25 09:18:21;;;;;;;72.80;55.78;;;20.10;99.90;;;20.40;38.94;103085.59;5072875;28;20052;-57
2022/03/25 09:20:50;;;;;;;78.20;56.15;;;20.10;99.90;;;20.61;39.34;103077.28;5072932;28;20044;-58
2022/03/25 09:23:19;;;;;;;86.35;55.70;;;20.20;99.90;;;20.75;38.67;103082.53;5072599;28;20052;-58
2022/03/25 09:25:48;;;;;;;74.20;53.78;;;20.40;99.90;;;20.71;38.04;103078.13;5072728;28;20078;-58
2022/03/25 09:28:17;;;;;;;76.28;54.72;;;20.40;99.90;;;20.79;38.91;103083.41;5072762;28;20383;-58
2022/03/25 09:30:45;;;;;;;72.22;53.35;;;20.40;99.90;;;21.04;38.31;103088.50;5072703;28;20056;-58
2022/03/25 09:33:13;;;;;;;72.82;51.30;;;20.60;99.90;;;21.22;37.92;103087.38;5072635;28;20127;-58
2022/03/25 09:35:44;;;;;;;69.32;51.15;;;20.90;99.90;;;21.30;37.06;103083.69;5072497;28;20063;-58
2022/03/25 09:38:13;;;;;;;70.60;50.47;;;21.00;99.90;;;20.88;36.68;103018.72;5072952;28;20088;-57
2022/03/25 09:40:45;;;;;;;71.35;50.58;;;20.90;99.90;;;21.32;36.98;103095.34;5072333;28;20083;-58
2022/03/25 09:43:13;;;;;;;69.90;51.05;;;21.00;99.90;;;21.40;36.31;103088.06;5072770;28;20044;-61
2022/03/25 09:45:42;;;;;;;69.10;51.17;;;21.10;99.90;;;21.15;36.73;103021.09;5072203;28;20071;-58
2022/03/25 09:48:11;;;;;;;70.20;50.47;;;21.20;99.90;;;21.58;36.76;103090.47;5072406;28;20049;-58
2022/03/25 09:50:40;;;;;;;72.28;51.60;;;21.30;99.90;;;21.65;36.10;103088.59;5072287;28;20045;-58
2022/03/25 09:53:30;;;;;;;67.57;49.42;;;21.30;99.90;;;21.77;36.01;103080.31;5072551;28;20137;-58
2022/03/25 09:56:01;;;;;;;63.70;48.67;;;21.50;99.90;;;21.72;35.45;103086.69;5070936;28;20060;-62
2022/03/25 09:58:29;;;;;;;73.22;49.90;;;21.50;99.90;;;21.88;35.43;103090.94;5072569;28;20117;-60
2022/03/25 10:00:59;;;;;;;61.55;46.45;;;21.60;99.90;;;21.88;35.00;103078.38;5072398;28;20049;-58
2022/03/25 10:03:35;;;;;;;60.80;45.33;;;21.50;99.90;;;21.60;34.92;103079.69;5072404;28;20056;-63
2022/03/25 10:06:11;;;;;;;61.38;42.63;;;21.40;99.90;;;21.25;34.33;103002.06;5071958;28;20139;-59
2022/03/25 10:08:46;;;;;;;54.67;41.50;;;21.40;99.90;;;21.68;33.94;103093.03;5072406;28;20040;-58
2022/03/25 10:11:25;;;;;;;57.92;40.58;;;21.40;99.90;;;21.57;33.04;103093.19;5072017;28;20049;-62